Portada
METAR-TAF:

METAR-TAF

Aeroports :

Denpasar, Indonèsia

latitud: 08-44-53S, longitud: 115-10-03E, altitud: 4 m

Observació

L'informe es va fer fa 33 minuts, a les 01:00 UTC
Vent 5 kt del Est, variant entre Nord-Est i Sud-Est
Temperatura 28°C
Humitat 84%
Pressió 1011 hPa
Visibilitat 10 km o més
Escasses núvols a una alçada de 1700 ft

METAR: WADD 220100Z 10005KT 050V140 9999 FEW017 28/25 Q1011 NOSIG

Hora: 08:33 (01:33 UTC)

Pronòstic

L'informe es va fer fa 2 hores i 33 minuts, a les 23:00 UTC
Pronòstic vàlid del 22 a les 00 UTC al 23 a les 00 UTC
Vent 10 kt del Sud-Est
Visibilitat 10 km o més
Núvols disperses a una alçada de 1600 ft
Temporalment
l' 22 a les 21 UTC al 23 a les 00 UTC
Vent 5 kt amb direcció variable

TAF: WADD 212300Z 2200/2300 13010KT 9999 SCT016 TEMPO 2221/2300 VRB05KT

Observacions i pronòstics meteorològics de més de 4000 aeroports (METAR i TAF).

Les estacions disponibles són els punts grocs i vermells al mapa.

Posi el ratolí al punt desitjat per veure el nom de l'estació.

Feu clic per veure les observacions i els pronòstics meteorològics.

Per canviar el mapa: feu clic els botons verds amb una creu de color negre per apropar; al botó verd amb un guió per allunyar la imatge; o en les fletxes verdes per a mapes adjacents.


METAR-TAF: